createdAt,value
2022-12-07T00:01:31.500Z,4.60
2022-12-07T00:04:05.557Z,4.52
2022-12-07T00:06:33.177Z,4.54
2022-12-07T00:09:00.172Z,4.57
2022-12-07T00:11:27.612Z,4.57
2022-12-07T00:13:56.413Z,4.62
2022-12-07T00:16:24.080Z,4.60
2022-12-07T00:18:51.032Z,4.54
2022-12-07T00:21:20.580Z,4.45
2022-12-07T00:23:48.641Z,4.41
2022-12-07T00:26:18.535Z,4.38
2022-12-07T00:28:52.367Z,4.40
2022-12-07T00:31:20.798Z,4.46
2022-12-07T00:33:48.243Z,4.48
2022-12-07T00:36:19.765Z,4.44
2022-12-07T00:38:50.366Z,4.45
2022-12-07T00:41:21.579Z,4.49
2022-12-07T00:43:49.330Z,4.53
2022-12-07T00:46:17.337Z,4.51
2022-12-07T00:48:44.470Z,4.47
2022-12-07T00:51:12.572Z,4.49
2022-12-07T00:53:41.937Z,4.49
2022-12-07T00:56:20.562Z,4.54
2022-12-07T00:58:54.992Z,4.58
2022-12-07T01:01:22.180Z,4.56
2022-12-07T01:03:49.170Z,4.47
2022-12-07T01:06:17.593Z,4.41
2022-12-07T01:08:44.427Z,4.40
2022-12-07T01:11:14.945Z,4.45
2022-12-07T01:13:42.401Z,4.48
2022-12-07T01:16:12.878Z,4.51
2022-12-07T01:18:39.750Z,4.59
2022-12-07T01:21:15.176Z,4.53
2022-12-07T01:23:42.328Z,4.45
2022-12-07T01:26:13.608Z,4.43
2022-12-07T01:28:40.425Z,4.51
2022-12-07T01:31:12.879Z,4.59
2022-12-07T01:33:40.469Z,4.59
2022-12-07T01:36:14.678Z,4.55
2022-12-07T01:38:41.531Z,4.51
2022-12-07T01:41:08.669Z,4.40
2022-12-07T01:43:35.840Z,4.40
2022-12-07T01:46:04.181Z,4.43
2022-12-07T01:48:37.619Z,4.49
2022-12-07T01:51:11.763Z,4.48
2022-12-07T01:53:41.217Z,4.54
2022-12-07T01:56:09.717Z,4.58
2022-12-07T01:58:36.691Z,4.61
2022-12-07T02:01:03.474Z,4.62
2022-12-07T02:03:35.939Z,4.59
2022-12-07T02:06:02.820Z,4.43
2022-12-07T02:08:30.388Z,4.39
2022-12-07T02:10:57.245Z,4.38
2022-12-07T02:13:34.194Z,4.36
2022-12-07T02:16:22.768Z,4.35
2022-12-07T02:19:13.638Z,4.30
2022-12-07T02:21:58.323Z,4.31
2022-12-07T02:24:54.219Z,4.31
2022-12-07T02:27:40.288Z,4.12
2022-12-07T02:30:15.594Z,4.03
2022-12-07T02:32:42.211Z,4.04
2022-12-07T02:35:33.666Z,3.87
2022-12-07T02:38:08.807Z,3.89
2022-12-07T02:40:40.766Z,3.85
2022-12-07T02:43:18.464Z,3.88
2022-12-07T02:45:48.948Z,3.98
2022-12-07T02:48:17.576Z,4.04
2022-12-07T02:50:52.166Z,4.07
2022-12-07T02:53:38.228Z,4.10
2022-12-07T02:56:10.668Z,4.07
2022-12-07T02:58:46.631Z,4.09
2022-12-07T03:01:27.477Z,3.97
2022-12-07T03:04:04.644Z,3.82
2022-12-07T03:06:36.204Z,3.77
2022-12-07T03:09:15.701Z,3.74
2022-12-07T03:11:49.978Z,3.78
2022-12-07T03:14:22.487Z,3.80
2022-12-07T03:17:07.517Z,3.82
2022-12-07T03:19:35.421Z,3.77
2022-12-07T03:22:05.014Z,3.80
2022-12-07T03:24:42.458Z,3.76
2022-12-07T03:27:19.391Z,3.77
2022-12-07T03:30:06.347Z,3.79
2022-12-07T03:33:10.041Z,3.75
2022-12-07T03:35:51.243Z,3.58
2022-12-07T03:38:24.672Z,3.46
2022-12-07T03:40:56.244Z,3.46
2022-12-07T03:43:23.437Z,3.37
2022-12-07T03:46:13.167Z,3.35
2022-12-07T03:48:53.607Z,3.33
2022-12-07T03:51:35.345Z,3.35
2022-12-07T03:54:08.148Z,3.35
2022-12-07T03:56:35.565Z,3.37
2022-12-07T03:59:02.406Z,3.43
2022-12-07T04:01:29.286Z,3.51
2022-12-07T04:03:56.002Z,3.47
2022-12-07T04:06:22.820Z,3.47
2022-12-07T04:08:49.608Z,3.53
2022-12-07T04:11:16.344Z,3.54
2022-12-07T04:14:01.646Z,3.48
2022-12-07T04:16:28.571Z,3.49
2022-12-07T04:18:55.396Z,3.39
2022-12-07T04:21:23.488Z,3.37
2022-12-07T04:23:50.271Z,3.39
2022-12-07T04:26:16.971Z,3.43
2022-12-07T04:28:43.765Z,3.43
2022-12-07T04:31:10.652Z,3.45
2022-12-07T04:33:37.587Z,3.41
2022-12-07T04:36:04.655Z,3.44
2022-12-07T04:38:31.379Z,3.42
2022-12-07T04:40:58.247Z,3.45
2022-12-07T04:43:24.937Z,3.47
2022-12-07T04:45:52.290Z,3.53
2022-12-07T04:48:19.049Z,3.39
2022-12-07T04:50:46.529Z,3.37
2022-12-07T04:53:13.366Z,3.39
2022-12-07T04:55:41.683Z,3.35
2022-12-07T04:58:08.473Z,3.36
2022-12-07T05:00:35.255Z,3.33
2022-12-07T05:03:02.015Z,3.21
2022-12-07T05:05:28.771Z,3.07
2022-12-07T05:07:55.564Z,3.07
2022-12-07T05:10:22.395Z,2.98
2022-12-07T05:12:49.237Z,3.03
2022-12-07T05:15:16.460Z,3.11
2022-12-07T05:17:43.423Z,3.13
2022-12-07T05:20:10.852Z,3.13
2022-12-07T05:22:37.705Z,2.92
2022-12-07T05:25:04.794Z,2.90
2022-12-07T05:27:31.535Z,2.89
2022-12-07T05:29:58.316Z,2.90
2022-12-07T05:32:25.208Z,2.88
2022-12-07T05:34:52.062Z,2.95
2022-12-07T05:37:18.782Z,2.97
2022-12-07T05:39:45.577Z,3.09
2022-12-07T05:42:15.226Z,3.16
2022-12-07T05:44:44.170Z,3.23
2022-12-07T05:47:11.335Z,3.24
2022-12-07T05:49:38.107Z,3.22
2022-12-07T05:52:05.111Z,3.28
2022-12-07T05:54:31.901Z,3.31
2022-12-07T05:56:59.101Z,3.36
2022-12-07T05:59:26.805Z,3.38
2022-12-07T06:02:04.342Z,3.40
2022-12-07T06:04:33.919Z,3.46
2022-12-07T06:07:00.691Z,3.51
2022-12-07T06:09:28.747Z,3.48
2022-12-07T06:12:15.290Z,3.51
2022-12-07T06:14:42.603Z,3.56
2022-12-07T06:17:10.261Z,3.57
2022-12-07T06:19:37.337Z,3.51
2022-12-07T06:22:05.604Z,3.50
2022-12-07T06:24:33.811Z,3.55
2022-12-07T06:27:01.050Z,3.53
2022-12-07T06:29:27.851Z,3.58
2022-12-07T06:31:54.767Z,3.65
2022-12-07T06:34:23.768Z,3.74
2022-12-07T06:36:56.140Z,3.73
2022-12-07T06:39:27.567Z,3.81
2022-12-07T06:41:55.063Z,3.90
2022-12-07T06:44:24.140Z,4.02
2022-12-07T06:46:52.013Z,4.12
2022-12-07T06:49:18.882Z,4.21
2022-12-07T06:51:45.622Z,4.25
2022-12-07T06:54:13.533Z,4.32
2022-12-07T06:56:40.355Z,4.40
2022-12-07T06:59:07.956Z,4.47
2022-12-07T07:01:36.571Z,4.50
2022-12-07T07:04:03.531Z,4.54
2022-12-07T07:06:30.324Z,4.47
2022-12-07T07:08:57.091Z,4.50
2022-12-07T07:11:23.976Z,4.55
2022-12-07T07:13:50.802Z,4.64
2022-12-07T07:16:17.676Z,4.66
2022-12-07T07:18:44.613Z,4.63
2022-12-07T07:21:11.422Z,4.66
2022-12-07T07:23:38.233Z,4.73
2022-12-07T07:26:05.167Z,4.82
2022-12-07T07:28:31.958Z,4.90
2022-12-07T07:30:58.748Z,4.90
2022-12-07T07:33:25.566Z,4.91
2022-12-07T07:35:52.309Z,4.95
2022-12-07T07:38:19.080Z,4.86
2022-12-07T07:40:46.113Z,4.88
2022-12-07T07:43:12.916Z,4.91
2022-12-07T07:45:39.910Z,4.83
2022-12-07T07:48:07.036Z,4.88
2022-12-07T07:50:33.810Z,4.94
2022-12-07T07:53:00.552Z,5.02
2022-12-07T07:55:27.311Z,5.05
2022-12-07T07:57:55.292Z,5.17
2022-12-07T08:00:22.792Z,5.26
2022-12-07T08:02:49.566Z,5.35
2022-12-07T08:05:17.076Z,5.39
2022-12-07T08:07:44.605Z,5.47
2022-12-07T08:10:13.337Z,5.55
2022-12-07T08:13:02.375Z,5.65
2022-12-07T08:15:31.528Z,5.73
2022-12-07T08:17:58.792Z,5.78
2022-12-07T08:20:25.583Z,5.79
2022-12-07T08:22:52.408Z,5.78
2022-12-07T08:25:19.258Z,5.84
2022-12-07T08:27:46.191Z,5.87
2022-12-07T08:30:13.318Z,5.77
2022-12-07T08:32:40.594Z,5.70
2022-12-07T08:35:08.027Z,5.71
2022-12-07T08:37:34.841Z,5.74
2022-12-07T08:40:02.045Z,5.86
2022-12-07T08:42:30.970Z,5.96
2022-12-07T08:44:58.204Z,6.04
2022-12-07T08:47:25.746Z,6.09
2022-12-07T08:49:53.176Z,6.15
2022-12-07T08:52:20.006Z,6.36
2022-12-07T08:54:46.846Z,6.64
2022-12-07T08:57:13.747Z,6.54
2022-12-07T08:59:41.216Z,6.60
2022-12-07T09:02:08.131Z,6.68
2022-12-07T09:04:34.950Z,6.53
2022-12-07T09:07:01.832Z,6.46
2022-12-07T09:09:28.675Z,6.55
2022-12-07T09:11:55.492Z,6.67
2022-12-07T09:14:22.753Z,6.81
2022-12-07T09:16:49.537Z,6.88
2022-12-07T09:19:16.318Z,6.97
2022-12-07T09:21:43.038Z,7.04
2022-12-07T09:24:10.302Z,6.89
2022-12-07T09:26:37.037Z,6.89
2022-12-07T09:29:04.207Z,6.89
2022-12-07T09:31:31.182Z,7.00
2022-12-07T09:33:59.901Z,7.09
2022-12-07T09:36:27.648Z,7.15
2022-12-07T09:38:54.555Z,7.25
2022-12-07T09:41:23.017Z,7.32
2022-12-07T09:43:50.015Z,7.32
2022-12-07T09:46:20.100Z,7.37
2022-12-07T09:48:47.435Z,7.47
2022-12-07T09:51:25.350Z,7.51
2022-12-07T09:53:57.808Z,7.58
2022-12-07T09:56:25.123Z,7.67
2022-12-07T09:58:57.284Z,7.75
2022-12-07T10:01:24.107Z,7.82
2022-12-07T10:03:56.761Z,7.89
2022-12-07T10:06:24.908Z,7.88
2022-12-07T10:08:52.059Z,7.89
2022-12-07T10:11:18.798Z,7.99
2022-12-07T10:13:50.532Z,8.04
2022-12-07T10:16:29.425Z,8.11
2022-12-07T10:18:56.803Z,8.17
2022-12-07T10:21:25.693Z,8.26
2022-12-07T10:24:05.814Z,8.33
2022-12-07T10:26:47.919Z,8.18
2022-12-07T10:29:25.030Z,8.25
2022-12-07T10:32:03.823Z,8.28
2022-12-07T10:34:39.533Z,8.27
2022-12-07T10:37:22.782Z,8.27
2022-12-07T10:39:56.602Z,8.38
2022-12-07T10:42:31.535Z,8.46
2022-12-07T10:45:16.656Z,8.55
2022-12-07T10:48:05.484Z,8.59
2022-12-07T10:51:13.400Z,8.62
2022-12-07T10:53:57.957Z,8.69
2022-12-07T10:57:09.796Z,8.78
2022-12-07T10:59:49.252Z,8.80
2022-12-07T11:02:46.584Z,8.83
2022-12-07T11:05:23.067Z,8.89
2022-12-07T11:07:58.648Z,8.97
2022-12-07T11:11:07.114Z,8.99
2022-12-07T11:13:38.002Z,9.08
2022-12-07T11:16:40.105Z,9.18
2022-12-07T11:19:29.293Z,9.30
2022-12-07T11:22:02.183Z,9.35
2022-12-07T11:24:36.972Z,9.39
2022-12-07T11:27:27.958Z,9.43
2022-12-07T11:30:05.082Z,9.35
2022-12-07T11:32:51.421Z,9.46
2022-12-07T11:35:36.396Z,10.08
2022-12-07T11:38:11.676Z,10.46
2022-12-07T11:40:40.498Z,10.83
2022-12-07T11:43:23.882Z,11.04
2022-12-07T11:46:13.410Z,11.59
2022-12-07T11:48:44.808Z,12.23
2022-12-07T11:51:13.062Z,12.62
2022-12-07T11:53:42.739Z,13.12
2022-12-07T11:56:17.164Z,13.63
2022-12-07T11:58:54.994Z,14.02
2022-12-07T12:01:37.015Z,14.21
2022-12-07T12:04:11.267Z,14.31
2022-12-07T12:06:42.900Z,14.63
2022-12-07T12:09:41.082Z,14.99
2022-12-07T12:15:44.583Z,15.59
2022-12-07T12:18:31.746Z,15.78
2022-12-07T12:21:15.893Z,15.95
2022-12-07T12:23:48.662Z,16.17
2022-12-07T12:26:20.401Z,16.35
2022-12-07T12:28:50.387Z,16.40
2022-12-07T12:31:23.643Z,16.42
2022-12-07T12:33:58.425Z,16.27
2022-12-07T12:36:31.153Z,16.17
2022-12-07T12:39:11.682Z,15.95
2022-12-07T12:41:39.345Z,15.82
2022-12-07T12:44:15.284Z,15.88
2022-12-07T12:46:55.377Z,15.92
2022-12-07T12:49:22.129Z,15.96
2022-12-07T12:51:53.689Z,16.01
2022-12-07T12:54:23.438Z,15.86
2022-12-07T12:56:54.601Z,15.82
2022-12-07T12:59:33.292Z,15.81
2022-12-07T13:02:11.977Z,15.77
2022-12-07T13:04:49.379Z,15.71
2022-12-07T13:07:48.166Z,15.56
2022-12-07T13:10:33.522Z,15.46
2022-12-07T13:13:13.641Z,15.34
2022-12-07T13:15:45.260Z,15.16
2022-12-07T13:18:24.172Z,14.95
2022-12-07T13:21:02.983Z,14.73
2022-12-07T13:23:45.079Z,14.59
2022-12-07T13:26:17.685Z,14.50
2022-12-07T13:28:51.110Z,14.39
2022-12-07T13:31:33.319Z,14.18
2022-12-07T13:34:01.082Z,14.07
2022-12-07T13:36:36.388Z,13.89
2022-12-07T13:39:15.416Z,13.79
2022-12-07T13:41:45.938Z,13.73
2022-12-07T13:44:15.812Z,13.64
2022-12-07T13:47:01.316Z,13.48
2022-12-07T13:49:32.858Z,13.31
2022-12-07T13:52:19.989Z,13.20
2022-12-07T13:54:56.796Z,13.08
2022-12-07T13:57:25.682Z,12.99
2022-12-07T13:59:53.357Z,12.88
2022-12-07T14:02:23.105Z,12.74
2022-12-07T14:04:51.977Z,12.59
2022-12-07T14:07:29.638Z,12.50
2022-12-07T14:10:07.098Z,12.44
2022-12-07T14:12:37.392Z,12.41
2022-12-07T14:15:05.334Z,12.37
2022-12-07T14:17:32.442Z,12.30
2022-12-07T14:20:05.539Z,12.11
2022-12-07T14:22:33.971Z,11.73
2022-12-07T14:25:03.792Z,11.46
2022-12-07T14:27:35.185Z,11.30
2022-12-07T14:30:03.272Z,11.30
2022-12-07T14:32:31.864Z,11.30
2022-12-07T14:35:03.317Z,11.25
2022-12-07T14:37:31.342Z,11.16
2022-12-07T14:39:58.379Z,11.04
2022-12-07T14:42:28.298Z,10.93
2022-12-07T14:44:55.604Z,10.74
2022-12-07T14:50:12.785Z,10.10
2022-12-07T14:55:31.861Z,9.49
2022-12-07T14:57:59.734Z,9.35
2022-12-07T15:00:28.148Z,9.05
2022-12-07T15:02:55.243Z,8.90
2022-12-07T15:05:22.155Z,8.75
2022-12-07T15:07:49.568Z,8.60
2022-12-07T15:10:30.415Z,8.24
2022-12-07T15:13:21.510Z,7.89
2022-12-07T15:15:49.773Z,7.75
2022-12-07T15:18:17.403Z,7.71
2022-12-07T15:20:44.889Z,7.62
2022-12-07T15:23:12.412Z,7.57
2022-12-07T15:25:47.232Z,7.42
2022-12-07T15:28:14.545Z,7.32
2022-12-07T15:30:45.014Z,7.28
2022-12-07T15:33:12.835Z,6.93
2022-12-07T15:35:44.176Z,6.75
2022-12-07T15:38:11.375Z,6.72
2022-12-07T15:40:38.303Z,6.58
2022-12-07T15:43:05.722Z,6.43
2022-12-07T15:45:32.471Z,6.33
2022-12-07T15:50:46.061Z,6.34
2022-12-07T15:53:12.947Z,6.24
2022-12-07T15:55:41.171Z,6.15
2022-12-07T15:58:07.947Z,6.24
2022-12-07T16:00:35.174Z,6.27
2022-12-07T16:03:02.308Z,6.09
2022-12-07T16:05:29.567Z,6.04
2022-12-07T16:07:56.596Z,5.97
2022-12-07T16:10:23.525Z,5.82
2022-12-07T16:12:50.323Z,5.89
2022-12-07T16:15:21.456Z,5.77
2022-12-07T16:17:51.282Z,5.63
2022-12-07T16:20:18.097Z,5.58
2022-12-07T16:22:44.900Z,5.59
2022-12-07T16:25:11.666Z,5.53
2022-12-07T16:27:38.417Z,5.34
2022-12-07T16:30:05.958Z,5.32
2022-12-07T16:32:32.725Z,5.33
2022-12-07T16:34:59.509Z,5.35
2022-12-07T16:37:26.206Z,5.29
2022-12-07T16:39:52.948Z,5.31
2022-12-07T16:42:19.680Z,5.34
2022-12-07T16:44:46.523Z,5.20
2022-12-07T16:47:13.282Z,5.17
2022-12-07T16:49:40.161Z,5.20
2022-12-07T16:52:19.772Z,5.19
2022-12-07T16:54:48.334Z,5.14
2022-12-07T16:57:20.224Z,5.16
2022-12-07T16:59:49.816Z,5.17
2022-12-07T17:02:16.551Z,5.14
2022-12-07T17:04:43.525Z,5.13
2022-12-07T17:07:10.528Z,5.17
2022-12-07T17:09:37.646Z,5.19
2022-12-07T17:12:04.756Z,5.26
2022-12-07T17:14:50.086Z,5.20
2022-12-07T17:17:16.918Z,5.13
2022-12-07T17:19:43.880Z,5.09
2022-12-07T17:22:13.601Z,5.03
2022-12-07T17:24:40.440Z,5.04
2022-12-07T17:27:07.406Z,5.05
2022-12-07T17:29:34.399Z,5.09
2022-12-07T17:32:01.422Z,5.10
2022-12-07T17:34:28.220Z,5.08
2022-12-07T17:36:55.771Z,4.99
2022-12-07T17:39:22.541Z,4.83
2022-12-07T17:42:07.980Z,4.81
2022-12-07T17:44:34.802Z,4.79
2022-12-07T17:47:03.935Z,4.79
2022-12-07T17:49:31.089Z,4.80
2022-12-07T17:52:16.713Z,4.70
2022-12-07T17:54:43.999Z,4.63
2022-12-07T17:57:10.794Z,4.64
2022-12-07T17:59:37.781Z,4.50
2022-12-07T18:02:04.662Z,4.45
2022-12-07T18:04:31.528Z,4.40
2022-12-07T18:06:58.694Z,4.49
2022-12-07T18:09:25.486Z,4.59
2022-12-07T18:11:52.327Z,4.64
2022-12-07T18:14:19.111Z,4.66
2022-12-07T18:16:46.368Z,4.66
2022-12-07T18:19:14.736Z,4.64
2022-12-07T18:21:42.027Z,4.68
2022-12-07T18:24:11.338Z,4.58
2022-12-07T18:26:39.056Z,4.55
2022-12-07T18:29:07.422Z,4.55
2022-12-07T18:31:35.172Z,4.57
2022-12-07T18:34:06.108Z,4.61
2022-12-07T18:36:32.895Z,4.64
2022-12-07T18:38:59.743Z,4.70
2022-12-07T18:41:26.633Z,4.68
2022-12-07T18:43:53.438Z,4.56
2022-12-07T18:46:21.520Z,4.51
2022-12-07T18:48:50.562Z,4.53
2022-12-07T18:51:20.056Z,4.59
2022-12-07T18:53:46.831Z,4.58
2022-12-07T18:56:19.486Z,4.52
2022-12-07T18:59:13.547Z,4.56
2022-12-07T19:01:41.536Z,4.63
2022-12-07T19:04:08.733Z,4.56
2022-12-07T19:06:35.970Z,4.50
2022-12-07T19:09:03.416Z,4.49
2022-12-07T19:11:50.331Z,4.50
2022-12-07T19:14:17.141Z,4.54
2022-12-07T19:16:44.136Z,4.48
2022-12-07T19:19:11.047Z,4.44
2022-12-07T19:21:38.194Z,4.36
2022-12-07T19:24:06.267Z,4.30
2022-12-07T19:26:33.389Z,4.20
2022-12-07T19:29:00.438Z,4.09
2022-12-07T19:31:27.444Z,4.11
2022-12-07T19:33:54.497Z,4.17
2022-12-07T19:36:21.207Z,4.24
2022-12-07T19:38:47.964Z,4.23
2022-12-07T19:41:33.459Z,4.20
2022-12-07T19:44:20.116Z,4.25
2022-12-07T19:46:50.159Z,4.18
2022-12-07T19:49:17.913Z,4.12
2022-12-07T19:51:46.412Z,4.15
2022-12-07T19:54:15.092Z,4.19
2022-12-07T19:56:42.449Z,4.27
2022-12-07T19:59:09.393Z,4.24
2022-12-07T20:01:38.177Z,4.18
2022-12-07T20:04:06.491Z,4.13
2022-12-07T20:06:33.754Z,4.15
2022-12-07T20:09:00.519Z,4.20
2022-12-07T20:11:45.972Z,4.26
2022-12-07T20:14:13.445Z,4.28
2022-12-07T20:16:40.856Z,4.23
2022-12-07T20:19:09.112Z,4.22
2022-12-07T20:21:37.202Z,4.24
2022-12-07T20:24:06.423Z,4.30
2022-12-07T20:26:36.781Z,4.33
2022-12-07T20:29:10.977Z,4.35
2022-12-07T20:31:38.903Z,4.40
2022-12-07T20:34:05.706Z,4.38
2022-12-07T20:36:33.498Z,4.38
2022-12-07T20:39:01.579Z,4.39
2022-12-07T20:41:46.881Z,4.34
2022-12-07T20:44:15.253Z,4.37
2022-12-07T20:46:43.722Z,4.42
2022-12-07T20:49:12.000Z,4.42
2022-12-07T20:51:38.802Z,4.36
2022-12-07T20:54:05.759Z,4.33
2022-12-07T20:56:33.637Z,4.41
2022-12-07T20:59:05.557Z,4.48
2022-12-07T21:01:32.553Z,4.56
2022-12-07T21:04:01.288Z,4.60
2022-12-07T21:06:29.316Z,4.63
2022-12-07T21:08:58.495Z,4.63
2022-12-07T21:11:26.713Z,4.60
2022-12-07T21:13:53.521Z,4.58
2022-12-07T21:16:23.512Z,4.51
2022-12-07T21:18:50.547Z,4.49
2022-12-07T21:21:22.193Z,4.57
2022-12-07T21:23:50.849Z,4.64
2022-12-07T21:26:19.770Z,4.64
2022-12-07T21:28:47.655Z,4.61
2022-12-07T21:31:14.701Z,4.64
2022-12-07T21:33:44.432Z,4.63
2022-12-07T21:36:13.154Z,4.55
2022-12-07T21:38:39.903Z,4.56
2022-12-07T21:41:21.539Z,4.59
2022-12-07T21:43:48.801Z,4.53
2022-12-07T21:46:17.247Z,4.54
2022-12-07T21:48:49.005Z,4.56
2022-12-07T21:51:15.747Z,4.46
2022-12-07T21:53:43.233Z,4.24
2022-12-07T21:56:21.741Z,4.22
2022-12-07T21:58:49.446Z,4.22
2022-12-07T22:01:21.462Z,4.09
2022-12-07T22:03:48.988Z,4.02
2022-12-07T22:06:16.887Z,3.99
2022-12-07T22:08:44.238Z,3.93
2022-12-07T22:11:12.383Z,3.91
2022-12-07T22:13:59.298Z,3.81
2022-12-07T22:16:26.291Z,3.78
2022-12-07T22:18:53.133Z,3.62
2022-12-07T22:21:20.137Z,3.51
2022-12-07T22:23:47.228Z,3.47
2022-12-07T22:26:17.592Z,3.50
2022-12-07T22:28:48.552Z,3.52
2022-12-07T22:31:17.052Z,3.30
2022-12-07T22:33:44.257Z,3.30
2022-12-07T22:36:11.174Z,3.30
2022-12-07T22:38:39.061Z,3.26
2022-12-07T22:41:14.929Z,3.18
2022-12-07T22:43:41.784Z,3.11
2022-12-07T22:46:09.537Z,3.11
2022-12-07T22:48:36.569Z,3.15
2022-12-07T22:51:04.398Z,3.14
2022-12-07T22:53:31.612Z,3.16
2022-12-07T22:55:58.697Z,3.12
2022-12-07T22:58:25.488Z,3.05
2022-12-07T23:00:53.036Z,3.08
2022-12-07T23:03:19.916Z,3.14
2022-12-07T23:05:49.129Z,3.12
2022-12-07T23:08:16.602Z,3.13
2022-12-07T23:10:48.245Z,3.01
2022-12-07T23:13:32.633Z,2.82
2022-12-07T23:16:00.888Z,2.85
2022-12-07T23:18:27.881Z,2.82
2022-12-07T23:20:58.227Z,2.75
2022-12-07T23:23:25.795Z,2.72
2022-12-07T23:25:53.033Z,2.71
2022-12-07T23:28:20.037Z,2.59
2022-12-07T23:30:46.827Z,2.70
2022-12-07T23:33:13.732Z,2.77
2022-12-07T23:35:40.477Z,2.87
2022-12-07T23:38:07.301Z,2.90
2022-12-07T23:40:34.130Z,2.90
2022-12-07T23:43:00.844Z,2.89
2022-12-07T23:45:27.639Z,2.94
2022-12-07T23:47:54.435Z,3.05
2022-12-07T23:50:21.223Z,3.08
2022-12-07T23:52:48.246Z,3.09
2022-12-07T23:55:14.992Z,2.93
2022-12-07T23:57:41.749Z,2.91
